createdAt,value
2018-02-08T00:01:52.987Z,25.33
2018-02-08T00:04:19.378Z,28.23
2018-02-08T00:06:45.950Z,25.60
2018-02-08T00:09:12.384Z,27.67
2018-02-08T00:11:38.775Z,25.30
2018-02-08T00:14:05.195Z,25.80
2018-02-08T00:16:31.623Z,26.37
2018-02-08T00:18:58.071Z,27.10
2018-02-08T00:21:24.657Z,26.27
2018-02-08T00:23:51.123Z,25.53
2018-02-08T00:26:18.246Z,27.47
2018-02-08T00:28:45.392Z,27.67
2018-02-08T00:31:11.786Z,26.37
2018-02-08T00:33:38.236Z,26.97
2018-02-08T00:36:04.620Z,26.30
2018-02-08T00:38:31.042Z,25.40
2018-02-08T00:40:57.547Z,25.80
2018-02-08T00:43:23.975Z,27.80
2018-02-08T00:45:50.418Z,24.67
2018-02-08T00:48:18.295Z,27.43
2018-02-08T00:50:44.697Z,27.33
2018-02-08T00:53:11.126Z,26.60
2018-02-08T00:55:37.558Z,25.50
2018-02-08T00:58:04.012Z,27.87
2018-02-08T01:00:31.365Z,24.10
2018-02-08T01:02:58.568Z,25.80
2018-02-08T01:05:25.024Z,23.50
2018-02-08T01:07:51.449Z,24.70
2018-02-08T01:10:17.873Z,28.23
2018-02-08T01:12:44.452Z,24.83
2018-02-08T01:15:10.925Z,25.30
2018-02-08T01:17:37.420Z,28.53
2018-02-08T01:20:03.860Z,27.00
2018-02-08T01:22:31.096Z,28.60
2018-02-08T01:24:57.502Z,26.33
2018-02-08T01:27:24.180Z,27.10
2018-02-08T01:29:50.589Z,26.10
2018-02-08T01:32:16.987Z,26.00
2018-02-08T01:34:43.597Z,27.53
2018-02-08T01:37:10.794Z,27.77
2018-02-08T01:39:37.341Z,27.63
2018-02-08T01:42:03.813Z,25.83
2018-02-08T01:44:31.050Z,24.60
2018-02-08T01:46:57.450Z,27.90
2018-02-08T01:49:30.976Z,25.20
2018-02-08T01:51:57.407Z,24.53
2018-02-08T01:54:23.841Z,26.40
2018-02-08T01:56:50.280Z,27.67
2018-02-08T01:59:17.447Z,26.43
2018-02-08T02:01:44.575Z,28.77
2018-02-08T02:04:11.054Z,26.57
2018-02-08T02:06:37.464Z,27.00
2018-02-08T02:09:03.960Z,25.97
2018-02-08T02:11:30.432Z,26.90
2018-02-08T02:13:57.585Z,27.03
2018-02-08T02:16:24.721Z,26.93
2018-02-08T02:18:51.247Z,28.67
2018-02-08T02:21:18.443Z,25.83
2018-02-08T02:23:44.847Z,26.37
2018-02-08T02:26:12.095Z,28.73
2018-02-08T02:28:38.486Z,26.27
2018-02-08T02:31:04.966Z,27.57
2018-02-08T02:33:32.143Z,27.80
2018-02-08T02:35:59.263Z,27.60
2018-02-08T02:38:26.399Z,27.90
2018-02-08T02:40:52.814Z,27.07
2018-02-08T02:43:19.213Z,27.83
2018-02-08T02:45:45.672Z,28.67
2018-02-08T02:48:12.117Z,25.20
2018-02-08T02:50:38.512Z,26.90
2018-02-08T02:53:04.907Z,25.80
2018-02-08T02:55:32.098Z,27.87
2018-02-08T02:57:58.592Z,29.83
2018-02-08T03:00:25.760Z,28.80
2018-02-08T03:02:52.222Z,29.47
2018-02-08T03:05:18.620Z,30.13
2018-02-08T03:07:45.020Z,25.30
2018-02-08T03:10:11.467Z,27.03
2018-02-08T03:12:37.948Z,28.90
2018-02-08T03:15:04.403Z,31.30
2018-02-08T03:17:30.938Z,27.37
2018-02-08T03:19:57.335Z,29.70
2018-02-08T03:22:23.828Z,28.27
2018-02-08T03:24:51.026Z,26.77
2018-02-08T03:27:17.468Z,29.17
2018-02-08T03:29:43.877Z,28.07
2018-02-08T03:32:10.379Z,30.10
2018-02-08T03:34:36.799Z,28.63
2018-02-08T03:37:03.240Z,30.70
2018-02-08T03:39:31.215Z,27.13
2018-02-08T03:41:57.599Z,29.27
2018-02-08T03:44:23.998Z,27.70
2018-02-08T03:46:51.436Z,25.67
2018-02-08T03:49:17.912Z,28.97
2018-02-08T03:51:44.354Z,25.53
2018-02-08T03:54:10.776Z,28.53
2018-02-08T03:56:37.178Z,29.70
2018-02-08T03:59:03.570Z,28.20
2018-02-08T04:01:30.035Z,31.40
2018-02-08T04:03:56.443Z,28.80
2018-02-08T04:06:22.951Z,28.17
2018-02-08T04:08:49.382Z,27.67
2018-02-08T04:11:15.791Z,26.30
2018-02-08T04:13:43.015Z,29.50
2018-02-08T04:16:09.523Z,28.60
2018-02-08T04:18:35.930Z,30.20
2018-02-08T04:21:03.136Z,32.10
2018-02-08T04:23:30.312Z,27.73
2018-02-08T04:25:56.678Z,28.23
2018-02-08T04:28:23.094Z,30.20
2018-02-08T04:30:49.667Z,28.70
2018-02-08T04:33:16.057Z,27.67
2018-02-08T04:35:43.267Z,28.77
2018-02-08T04:38:16.536Z,30.10
2018-02-08T04:40:55.267Z,30.60
2018-02-08T04:46:38.599Z,28.27
2018-02-08T04:49:05.025Z,27.77
2018-02-08T04:51:31.586Z,28.17
2018-02-08T04:53:59.490Z,29.83
2018-02-08T04:56:26.684Z,28.70
2018-02-08T04:58:53.043Z,29.90
2018-02-08T05:01:19.454Z,28.17
2018-02-08T05:03:45.889Z,32.73
2018-02-08T05:06:12.283Z,28.97
2018-02-08T05:08:38.729Z,28.77
2018-02-08T05:11:05.146Z,29.47
2018-02-08T05:13:31.539Z,29.93
2018-02-08T05:15:57.973Z,28.23
2018-02-08T05:18:24.436Z,28.40
2018-02-08T05:20:50.810Z,30.10
2018-02-08T05:23:17.192Z,28.97
2018-02-08T05:25:44.415Z,31.67
2018-02-08T05:28:10.828Z,30.77
2018-02-08T05:30:37.223Z,29.17
2018-02-08T05:33:03.659Z,30.17
2018-02-08T05:35:30.777Z,27.37
2018-02-08T05:37:57.169Z,27.87
2018-02-08T05:40:23.630Z,28.90
2018-02-08T05:42:50.034Z,31.50
2018-02-08T05:45:16.454Z,29.53
2018-02-08T05:47:42.968Z,29.77
2018-02-08T05:50:09.386Z,31.43
2018-02-08T05:52:37.031Z,29.07
2018-02-08T05:55:03.455Z,30.13
2018-02-08T05:57:30.101Z,29.67
2018-02-08T05:59:56.558Z,29.60
2018-02-08T06:02:23.067Z,28.37
2018-02-08T06:04:49.447Z,30.43
2018-02-08T06:07:15.904Z,30.30
2018-02-08T06:09:42.408Z,30.13
2018-02-08T06:12:08.852Z,30.30
2018-02-08T06:14:35.269Z,29.83
2018-02-08T06:17:01.772Z,30.47
2018-02-08T06:19:28.175Z,30.00
2018-02-08T06:21:54.625Z,31.97
2018-02-08T06:24:21.271Z,32.13
2018-02-08T06:26:47.729Z,29.60
2018-02-08T06:29:14.947Z,31.03
2018-02-08T06:31:42.898Z,29.53
2018-02-08T06:34:09.305Z,28.63
2018-02-08T06:36:35.704Z,31.30
2018-02-08T06:39:02.944Z,29.67
2018-02-08T06:41:29.341Z,30.13
2018-02-08T06:43:55.896Z,28.67
2018-02-08T06:46:22.357Z,30.80
2018-02-08T06:48:48.745Z,29.37
2018-02-08T06:51:15.187Z,29.63
2018-02-08T06:53:41.611Z,30.90
2018-02-08T06:56:08.019Z,31.03
2018-02-08T06:58:34.410Z,30.57
2018-02-08T07:01:00.886Z,27.67
2018-02-08T07:03:27.306Z,31.00
2018-02-08T07:05:53.688Z,29.43
2018-02-08T07:08:20.176Z,29.00
2018-02-08T07:10:46.604Z,29.10
2018-02-08T07:13:13.772Z,32.40
2018-02-08T07:15:41.031Z,30.50
2018-02-08T07:18:07.419Z,35.80
2018-02-08T07:20:33.807Z,30.20
2018-02-08T07:23:00.370Z,30.03
2018-02-08T07:25:26.780Z,29.50
2018-02-08T07:27:53.970Z,29.40
2018-02-08T07:30:21.138Z,31.13
2018-02-08T07:32:48.286Z,29.13
2018-02-08T07:35:15.612Z,31.20
2018-02-08T07:37:43.543Z,29.23
2018-02-08T07:40:09.960Z,30.47
2018-02-08T07:42:36.375Z,30.30
2018-02-08T07:45:02.883Z,30.00
2018-02-08T07:47:29.513Z,28.60
2018-02-08T07:49:55.911Z,29.50
2018-02-08T07:52:22.481Z,28.43
2018-02-08T07:54:48.905Z,32.10
2018-02-08T07:57:15.302Z,28.00
2018-02-08T07:59:41.740Z,30.90
2018-02-08T08:02:08.160Z,31.43
2018-02-08T08:04:34.554Z,29.97
2018-02-08T08:07:01.065Z,29.63
2018-02-08T08:09:27.807Z,29.37
2018-02-08T08:11:54.209Z,30.77
2018-02-08T08:14:20.630Z,33.47
2018-02-08T08:16:47.030Z,32.57
2018-02-08T08:19:13.460Z,33.47
2018-02-08T08:21:39.880Z,33.03
2018-02-08T08:24:06.298Z,32.87
2018-02-08T08:26:32.738Z,30.63
2018-02-08T08:28:59.216Z,31.33
2018-02-08T08:31:26.417Z,34.97
2018-02-08T08:33:52.833Z,32.70
2018-02-08T08:36:19.263Z,31.47
2018-02-08T08:38:45.708Z,33.10
2018-02-08T08:41:12.135Z,33.17
2018-02-08T08:43:38.582Z,33.20
2018-02-08T08:46:05.035Z,34.00
2018-02-08T08:48:31.582Z,33.50
2018-02-08T08:50:58.800Z,36.10
2018-02-08T08:53:26.702Z,34.83
2018-02-08T08:55:53.852Z,32.40
2018-02-08T08:58:21.034Z,32.33
2018-02-08T09:00:47.435Z,34.27
2018-02-08T09:03:14.577Z,33.63
2018-02-08T09:05:41.019Z,32.90
2018-02-08T09:08:08.165Z,32.43
2018-02-08T09:10:35.399Z,34.53
2018-02-08T09:13:01.807Z,31.83
2018-02-08T09:15:28.249Z,33.83
2018-02-08T09:17:54.666Z,33.83
2018-02-08T09:20:21.139Z,30.57
2018-02-08T09:22:47.606Z,32.07
2018-02-08T09:25:14.018Z,31.93
2018-02-08T09:27:41.194Z,34.00
2018-02-08T09:30:07.611Z,33.33
2018-02-08T09:32:34.809Z,32.27
2018-02-08T09:35:01.269Z,31.77
2018-02-08T09:37:27.659Z,33.77
2018-02-08T09:39:54.060Z,34.57
2018-02-08T09:42:20.538Z,32.60
2018-02-08T09:44:47.080Z,30.67
2018-02-08T09:47:13.550Z,32.27
2018-02-08T09:49:39.987Z,34.30
2018-02-08T09:52:07.216Z,32.77
2018-02-08T09:54:33.704Z,32.47
2018-02-08T09:57:00.130Z,31.93
2018-02-08T09:59:26.539Z,31.90
2018-02-08T10:01:53.851Z,32.20
2018-02-08T10:04:20.315Z,34.10
2018-02-08T10:06:47.641Z,34.20
2018-02-08T10:09:14.042Z,35.97
2018-02-08T10:11:40.474Z,32.90
2018-02-08T10:14:06.888Z,34.40
2018-02-08T10:16:33.278Z,33.60
2018-02-08T10:18:59.823Z,31.73
2018-02-08T10:21:26.241Z,34.83
2018-02-08T10:23:52.643Z,31.43
2018-02-08T10:26:19.103Z,33.63
2018-02-08T10:28:45.500Z,33.73
2018-02-08T10:31:12.619Z,32.10
2018-02-08T10:33:39.090Z,32.90
2018-02-08T10:36:05.487Z,31.80
2018-02-08T10:38:31.923Z,26.17
2018-02-08T10:40:59.082Z,36.80
2018-02-08T10:43:26.380Z,34.53
2018-02-08T10:45:52.805Z,33.80
2018-02-08T10:48:19.231Z,32.30
2018-02-08T10:50:45.705Z,33.57
2018-02-08T10:53:12.136Z,35.07
2018-02-08T10:55:38.598Z,33.80
2018-02-08T10:58:05.189Z,33.10
2018-02-08T11:00:31.639Z,34.70
2018-02-08T11:02:59.546Z,32.00
2018-02-08T11:05:26.008Z,35.03
2018-02-08T11:07:52.448Z,34.83
2018-02-08T11:10:18.884Z,35.47
2018-02-08T11:12:45.416Z,32.90
2018-02-08T11:15:11.891Z,34.80
2018-02-08T11:17:39.065Z,33.70
2018-02-08T11:20:05.535Z,35.40
2018-02-08T11:22:32.097Z,35.07
2018-02-08T11:24:59.347Z,33.70
2018-02-08T11:27:25.961Z,33.70
2018-02-08T11:29:53.141Z,38.63
2018-02-08T11:32:19.671Z,36.00
2018-02-08T11:34:46.060Z,36.50
2018-02-08T11:37:12.468Z,34.20
2018-02-08T11:39:39.658Z,36.27
2018-02-08T11:42:06.073Z,35.07
2018-02-08T11:44:32.491Z,36.40
2018-02-08T11:46:58.951Z,33.90
2018-02-08T11:49:25.341Z,35.77
2018-02-08T11:51:51.788Z,36.60
2018-02-08T11:54:18.950Z,35.73
2018-02-08T11:56:45.434Z,36.50
2018-02-08T11:59:12.599Z,32.43
2018-02-08T12:01:39.118Z,34.97
2018-02-08T12:04:05.565Z,37.63
2018-02-08T12:06:31.963Z,36.27
2018-02-08T12:08:58.469Z,35.37
2018-02-08T12:11:24.895Z,37.53
2018-02-08T12:13:51.333Z,37.00
2018-02-08T12:16:17.923Z,35.83
2018-02-08T12:18:45.089Z,34.50
2018-02-08T12:21:12.526Z,33.90
2018-02-08T12:23:39.000Z,36.20
2018-02-08T12:26:06.116Z,36.07
2018-02-08T12:28:33.274Z,35.30
2018-02-08T12:30:59.688Z,34.93
2018-02-08T12:33:26.861Z,34.97
2018-02-08T12:35:54.048Z,35.23
2018-02-08T12:38:20.491Z,37.03
2018-02-08T12:40:47.062Z,34.63
2018-02-08T12:43:13.493Z,35.93
2018-02-08T12:45:39.982Z,36.40
2018-02-08T12:48:06.567Z,36.03
2018-02-08T12:50:33.021Z,38.60
2018-02-08T12:53:00.352Z,36.27
2018-02-08T12:55:26.762Z,36.83
2018-02-08T12:57:53.312Z,36.27
2018-02-08T13:00:19.802Z,37.60
2018-02-08T13:02:46.377Z,38.23
2018-02-08T13:05:13.543Z,36.00
2018-02-08T13:07:39.969Z,35.67
2018-02-08T13:10:06.444Z,35.40
2018-02-08T13:12:32.890Z,36.10
2018-02-08T13:14:59.329Z,36.53
2018-02-08T13:17:25.739Z,36.90
2018-02-08T13:19:52.906Z,35.33
2018-02-08T13:22:19.358Z,37.60
2018-02-08T13:24:45.744Z,36.27
2018-02-08T13:27:12.896Z,34.53
2018-02-08T13:29:39.325Z,35.30
2018-02-08T13:32:06.582Z,37.43
2018-02-08T13:34:33.754Z,34.20
2018-02-08T13:37:00.257Z,36.80
2018-02-08T13:39:30.232Z,35.57
2018-02-08T13:41:56.694Z,37.80
2018-02-08T13:44:23.225Z,35.60
2018-02-08T13:46:52.603Z,35.43
2018-02-08T13:49:22.058Z,37.47
2018-02-08T13:55:01.664Z,39.28
2018-02-08T13:57:33.195Z,36.87
2018-02-08T14:03:12.869Z,35.80
2018-02-08T14:05:39.281Z,36.17
2018-02-08T14:08:05.882Z,36.30
2018-02-08T14:10:32.335Z,37.90
2018-02-08T14:12:59.664Z,38.50
2018-02-08T14:15:26.204Z,35.77
2018-02-08T14:17:52.639Z,37.50
2018-02-08T14:20:19.214Z,36.17
2018-02-08T14:22:45.663Z,36.17
2018-02-08T14:25:12.142Z,38.30
2018-02-08T14:27:39.307Z,36.83
2018-02-08T14:30:06.514Z,36.17
2018-02-08T14:32:33.022Z,36.93
2018-02-08T14:34:59.535Z,40.13
2018-02-08T14:37:26.224Z,39.10
2018-02-08T14:39:52.853Z,37.77
2018-02-08T14:42:19.284Z,38.70
2018-02-08T14:44:45.702Z,38.47
2018-02-08T14:47:12.264Z,41.13
2018-02-08T14:49:38.728Z,38.57
2018-02-08T14:52:05.125Z,41.60
2018-02-08T14:54:31.536Z,38.03
2018-02-08T14:56:57.999Z,39.80
2018-02-08T14:59:24.445Z,43.60
2018-02-08T15:01:50.879Z,42.23
2018-02-08T15:04:17.297Z,38.63
2018-02-08T15:06:43.710Z,38.57
2018-02-08T15:09:10.182Z,38.57
2018-02-08T15:11:37.474Z,37.70
2018-02-08T15:14:04.048Z,38.30
2018-02-08T15:16:30.503Z,40.00
2018-02-08T15:18:56.917Z,39.27
2018-02-08T15:21:23.321Z,42.00
2018-02-08T15:23:49.819Z,43.33
2018-02-08T15:26:16.993Z,36.47
2018-02-08T15:28:44.209Z,37.70
2018-02-08T15:31:10.986Z,38.53
2018-02-08T15:33:38.130Z,36.67
2018-02-08T15:36:04.584Z,36.60
2018-02-08T15:38:31.044Z,38.03
2018-02-08T15:40:57.490Z,39.03
2018-02-08T15:43:24.738Z,35.93
2018-02-08T15:45:51.945Z,41.47
2018-02-08T15:48:18.384Z,38.37
2018-02-08T15:50:44.791Z,37.93
2018-02-08T15:53:11.985Z,38.77
2018-02-08T15:55:38.411Z,37.20
2018-02-08T15:58:04.961Z,39.30
2018-02-08T16:00:31.403Z,38.10
2018-02-08T16:02:57.822Z,38.37
2018-02-08T16:05:24.248Z,37.60
2018-02-08T16:07:50.694Z,37.00
2018-02-08T16:10:17.194Z,37.77
2018-02-08T16:12:43.787Z,40.93
2018-02-08T16:15:10.425Z,38.10
2018-02-08T16:17:37.155Z,43.00
2018-02-08T16:20:03.802Z,40.30
2018-02-08T16:22:30.437Z,39.33
2018-02-08T16:24:56.865Z,34.07
2018-02-08T16:27:24.333Z,36.60
2018-02-08T16:29:51.601Z,40.67
2018-02-08T16:32:18.826Z,34.33
2018-02-08T16:34:45.251Z,40.63
2018-02-08T16:37:12.486Z,40.50
2018-02-08T16:39:38.986Z,37.50
2018-02-08T16:42:05.622Z,40.60
2018-02-08T16:44:32.259Z,37.03
2018-02-08T16:46:58.813Z,37.80
2018-02-08T16:49:25.356Z,42.70
2018-02-08T16:51:51.939Z,40.03
2018-02-08T16:54:19.111Z,39.60
2018-02-08T16:56:45.588Z,48.60
2018-02-08T16:59:12.825Z,40.53
2018-02-08T17:01:39.394Z,39.90
2018-02-08T17:04:05.898Z,40.00
2018-02-08T17:06:32.450Z,39.50
2018-02-08T17:08:58.892Z,39.07
2018-02-08T17:11:25.348Z,38.70
2018-02-08T17:13:51.810Z,37.03
2018-02-08T17:16:19.042Z,40.07
2018-02-08T17:18:45.565Z,39.03
2018-02-08T17:21:12.043Z,39.43
2018-02-08T17:23:38.639Z,35.50
2018-02-08T17:26:05.811Z,38.10
2018-02-08T17:28:32.328Z,38.73
2018-02-08T17:30:59.574Z,37.57
2018-02-08T17:33:25.982Z,38.97
2018-02-08T17:35:52.415Z,37.70
2018-02-08T17:38:18.846Z,41.03
2018-02-08T17:40:45.409Z,41.03
2018-02-08T17:43:12.667Z,38.70
2018-02-08T17:45:39.913Z,37.90
2018-02-08T17:48:06.377Z,36.40
2018-02-08T17:50:32.887Z,39.47
2018-02-08T17:52:59.315Z,38.93
2018-02-08T17:55:25.710Z,39.40
2018-02-08T17:57:52.204Z,40.10
2018-02-08T18:00:18.642Z,38.03
2018-02-08T18:02:45.168Z,38.73
2018-02-08T18:05:12.383Z,38.57
2018-02-08T18:07:38.785Z,38.80
2018-02-08T18:10:05.207Z,36.90
2018-02-08T18:12:31.861Z,39.40
2018-02-08T18:14:58.279Z,35.23
2018-02-08T18:17:24.797Z,38.50
2018-02-08T18:19:51.295Z,37.97
2018-02-08T18:22:18.480Z,39.37
2018-02-08T18:24:45.642Z,33.90
2018-02-08T18:27:12.241Z,37.33
2018-02-08T18:29:39.493Z,38.10
2018-02-08T18:32:06.721Z,41.47
2018-02-08T18:34:33.298Z,38.53
2018-02-08T18:36:59.715Z,41.20
2018-02-08T18:39:26.115Z,44.80
2018-02-08T18:41:52.583Z,40.23
2018-02-08T18:44:18.994Z,41.03
2018-02-08T18:46:45.433Z,42.07
2018-02-08T18:49:11.842Z,42.87
2018-02-08T18:51:38.295Z,43.13
2018-02-08T18:54:04.756Z,40.77
2018-02-08T18:56:31.955Z,39.97
2018-02-08T18:58:58.377Z,44.57
2018-02-08T19:01:24.792Z,41.43
2018-02-08T19:03:51.971Z,42.70
2018-02-08T19:06:18.431Z,43.67
2018-02-08T19:08:44.849Z,40.10
2018-02-08T19:11:11.314Z,42.00
2018-02-08T19:13:37.735Z,43.17
2018-02-08T19:16:04.153Z,40.83
2018-02-08T19:18:30.602Z,44.00
2018-02-08T19:20:57.030Z,43.50
2018-02-08T19:23:23.452Z,40.33
2018-02-08T19:25:50.023Z,41.70
2018-02-08T19:28:16.435Z,40.20
2018-02-08T19:30:42.979Z,41.43
2018-02-08T19:33:09.431Z,39.83
2018-02-08T19:35:36.753Z,38.67
2018-02-08T19:38:04.675Z,43.17
2018-02-08T19:40:31.119Z,42.10
2018-02-08T19:42:57.688Z,42.03
2018-02-08T19:45:24.956Z,41.70
2018-02-08T19:47:52.402Z,45.23
2018-02-08T19:50:19.588Z,42.03
2018-02-08T19:52:46.052Z,39.83
2018-02-08T19:55:12.508Z,41.97
2018-02-08T19:57:38.955Z,40.73
2018-02-08T20:00:05.383Z,38.27
2018-02-08T20:02:31.823Z,41.07
2018-02-08T20:04:58.231Z,39.50
2018-02-08T20:07:24.901Z,43.10
2018-02-08T20:09:51.747Z,39.70
2018-02-08T20:12:18.298Z,40.23
2018-02-08T20:14:56.596Z,37.37
2018-02-08T20:17:23.164Z,40.10
2018-02-08T20:19:49.767Z,41.37
2018-02-08T20:22:17.203Z,39.87
2018-02-08T20:24:44.559Z,40.80
2018-02-08T20:27:11.103Z,45.00
2018-02-08T20:29:37.585Z,40.07
2018-02-08T20:32:04.044Z,42.17
2018-02-08T20:34:30.724Z,38.83
2018-02-08T20:37:01.039Z,42.83
2018-02-08T20:39:28.404Z,42.40
2018-02-08T20:41:55.030Z,41.80
2018-02-08T20:44:22.323Z,40.07
2018-02-08T20:46:49.559Z,41.17
2018-02-08T20:49:16.996Z,40.03
2018-02-08T20:51:43.616Z,38.53
2018-02-08T20:54:10.050Z,39.33
2018-02-08T20:56:36.602Z,40.97
2018-02-08T20:59:03.862Z,41.63
2018-02-08T21:01:40.418Z,41.73
2018-02-08T21:04:06.977Z,41.50
2018-02-08T21:06:33.511Z,43.33
2018-02-08T21:09:00.045Z,40.10
2018-02-08T21:11:27.257Z,40.90
2018-02-08T21:13:53.771Z,42.70
2018-02-08T21:16:20.302Z,38.43
2018-02-08T21:18:47.652Z,40.83
2018-02-08T21:21:14.127Z,41.70
2018-02-08T21:23:40.592Z,41.97
2018-02-08T21:26:07.096Z,43.37
2018-02-08T21:28:33.519Z,41.47
2018-02-08T21:31:00.037Z,40.13
2018-02-08T21:33:26.610Z,40.30
2018-02-08T21:35:53.802Z,40.60
2018-02-08T21:38:20.238Z,40.20
2018-02-08T21:40:46.832Z,41.83
2018-02-08T21:43:13.684Z,41.50
2018-02-08T21:45:41.148Z,39.40
2018-02-08T21:48:08.020Z,37.60
2018-02-08T21:50:34.544Z,40.20
2018-02-08T21:53:01.020Z,39.40
2018-02-08T21:55:28.394Z,40.30
2018-02-08T21:57:55.657Z,42.47
2018-02-08T22:00:22.119Z,41.67
2018-02-08T22:02:48.621Z,41.10
2018-02-08T22:05:15.079Z,40.30
2018-02-08T22:07:41.575Z,40.47
2018-02-08T22:10:08.326Z,39.67
2018-02-08T22:12:35.684Z,39.37
2018-02-08T22:15:02.888Z,42.83
2018-02-08T22:17:29.380Z,37.10
2018-02-08T22:19:56.664Z,39.33
2018-02-08T22:22:23.334Z,37.80
2018-02-08T22:24:50.635Z,38.03
2018-02-08T22:27:17.216Z,38.53
2018-02-08T22:29:44.474Z,38.80
2018-02-08T22:32:11.053Z,37.33
2018-02-08T22:34:37.790Z,39.10
2018-02-08T22:37:04.513Z,40.40
2018-02-08T22:39:31.917Z,40.50
2018-02-08T22:41:58.726Z,38.13
2018-02-08T22:44:25.328Z,39.37
2018-02-08T22:46:51.826Z,40.37
2018-02-08T22:49:18.372Z,40.17
2018-02-08T22:51:44.903Z,41.73
2018-02-08T22:54:11.578Z,40.87
2018-02-08T22:56:38.971Z,40.83
2018-02-08T22:59:05.568Z,39.30
2018-02-08T23:01:32.347Z,41.47
2018-02-08T23:03:59.123Z,40.90
2018-02-08T23:06:26.205Z,40.43
2018-02-08T23:08:53.165Z,40.10
2018-02-08T23:11:19.781Z,42.23
2018-02-08T23:13:47.959Z,43.77
2018-02-08T23:16:14.511Z,41.83
2018-02-08T23:18:41.244Z,43.63
2018-02-08T23:21:08.588Z,43.70
2018-02-08T23:23:36.874Z,43.13
2018-02-08T23:26:03.833Z,42.97
2018-02-08T23:28:30.716Z,41.80
2018-02-08T23:30:57.215Z,41.83
2018-02-08T23:33:23.631Z,40.30
2018-02-08T23:35:50.169Z,40.80
2018-02-08T23:38:16.843Z,42.17
2018-02-08T23:40:43.345Z,40.63
2018-02-08T23:43:09.750Z,40.97
2018-02-08T23:45:36.204Z,36.63
2018-02-08T23:48:02.746Z,38.40
2018-02-08T23:50:29.948Z,40.50
2018-02-08T23:52:56.402Z,38.63
2018-02-08T23:55:22.827Z,37.67
2018-02-08T23:57:49.298Z,39.10
